createdAt,value
2018-06-28T00:00:32.623Z,61.50
2018-06-28T00:03:01.254Z,62.20
2018-06-28T00:05:29.816Z,62.40
2018-06-28T00:07:58.358Z,62.10
2018-06-28T00:10:26.948Z,62.70
2018-06-28T00:12:55.497Z,64.00
2018-06-28T00:15:24.076Z,63.70
2018-06-28T00:17:52.615Z,64.30
2018-06-28T00:20:21.159Z,63.70
2018-06-28T00:22:49.739Z,64.20
2018-06-28T00:25:18.296Z,64.70
2018-06-28T00:30:15.070Z,65.00
2018-06-28T00:32:43.606Z,66.20
2018-06-28T00:35:12.162Z,65.50
2018-06-28T00:37:40.731Z,65.90
2018-06-28T00:40:09.249Z,65.70
2018-06-28T00:42:37.742Z,65.80
2018-06-28T00:45:06.287Z,66.40
2018-06-28T00:47:34.862Z,66.40
2018-06-28T00:50:03.855Z,66.70
2018-06-28T00:52:32.500Z,66.60
2018-06-28T00:55:01.090Z,67.00
2018-06-28T00:57:29.627Z,67.50
2018-06-28T00:59:58.192Z,68.00
2018-06-28T01:02:26.743Z,67.90
2018-06-28T01:04:55.277Z,66.90
2018-06-28T01:07:23.863Z,67.50
2018-06-28T01:09:52.626Z,68.30
2018-06-28T01:12:21.131Z,68.10
2018-06-28T01:14:49.731Z,67.80
2018-06-28T01:17:18.311Z,68.10
2018-06-28T01:19:46.863Z,68.40
2018-06-28T01:22:15.434Z,68.20
2018-06-28T01:24:43.995Z,69.10
2018-06-28T01:27:12.525Z,68.00
2018-06-28T01:29:41.191Z,68.50
2018-06-28T01:32:09.734Z,68.90
2018-06-28T01:34:38.287Z,68.30
2018-06-28T01:37:06.857Z,67.40
2018-06-28T01:39:35.421Z,68.50
2018-06-28T01:42:15.201Z,69.00
2018-06-28T01:44:43.744Z,69.50
2018-06-28T01:47:12.262Z,69.50
2018-06-28T01:49:40.794Z,70.00
2018-06-28T01:52:09.316Z,70.40
2018-06-28T01:54:37.887Z,69.70
2018-06-28T01:57:06.432Z,70.10
2018-06-28T02:02:03.197Z,70.90
2018-06-28T02:04:31.738Z,71.20
2018-06-28T02:07:00.300Z,71.70
2018-06-28T02:09:28.830Z,71.20
2018-06-28T02:11:57.357Z,71.10
2018-06-28T02:14:25.884Z,71.20
2018-06-28T02:16:54.436Z,71.90
2018-06-28T02:19:23.154Z,72.20
2018-06-28T02:21:51.683Z,72.10
2018-06-28T02:24:20.258Z,71.90
2018-06-28T02:26:48.786Z,71.80
2018-06-28T02:29:17.342Z,72.00
2018-06-28T02:31:45.902Z,72.30
2018-06-28T02:34:14.428Z,72.70
2018-06-28T02:36:42.987Z,73.30
2018-06-28T02:39:11.483Z,74.00
2018-06-28T02:41:40.106Z,73.70
2018-06-28T02:44:11.573Z,74.10
2018-06-28T02:46:40.146Z,74.20
2018-06-28T02:49:08.714Z,74.40
2018-06-28T02:51:37.245Z,74.60
2018-06-28T02:54:05.822Z,74.50
2018-06-28T02:56:34.400Z,73.80
2018-06-28T02:59:02.970Z,74.00
2018-06-28T03:03:59.732Z,75.10
2018-06-28T03:06:28.246Z,75.00
2018-06-28T03:08:56.867Z,74.30
2018-06-28T03:11:25.399Z,74.50
2018-06-28T03:13:53.929Z,74.90
2018-06-28T03:16:22.489Z,75.10
2018-06-28T03:18:51.049Z,75.00
2018-06-28T03:21:19.578Z,75.40
2018-06-28T03:23:48.074Z,75.00
2018-06-28T03:26:16.603Z,75.10
2018-06-28T03:28:45.188Z,75.60
2018-06-28T03:31:13.723Z,75.10
2018-06-28T03:33:42.318Z,75.00
2018-06-28T03:36:10.835Z,75.90
2018-06-28T03:38:39.578Z,75.60
2018-06-28T03:41:08.151Z,76.00
2018-06-28T03:43:36.794Z,75.90
2018-06-28T03:46:05.381Z,76.30
2018-06-28T03:48:33.916Z,76.20
2018-06-28T03:51:02.482Z,75.80
2018-06-28T03:53:31.019Z,75.50
2018-06-28T03:55:59.627Z,75.40
2018-06-28T03:58:28.460Z,76.00
2018-06-28T04:00:57.016Z,76.10
2018-06-28T04:03:25.578Z,76.20
2018-06-28T04:05:54.106Z,76.30
2018-06-28T04:08:22.653Z,76.20
2018-06-28T04:10:51.179Z,76.90
2018-06-28T04:15:47.926Z,75.90
2018-06-28T04:18:16.715Z,76.10
2018-06-28T04:20:45.271Z,75.80
2018-06-28T04:23:13.834Z,75.60
2018-06-28T04:25:42.366Z,75.70
2018-06-28T04:28:10.879Z,75.40
2018-06-28T04:30:39.438Z,74.90
2018-06-28T04:33:07.938Z,74.90
2018-06-28T04:35:36.506Z,75.00
2018-06-28T04:38:05.292Z,75.00
2018-06-28T04:40:33.831Z,74.20
2018-06-28T04:43:02.356Z,73.90
2018-06-28T04:45:30.871Z,72.60
2018-06-28T04:47:59.379Z,72.30
2018-06-28T04:50:27.921Z,72.00
2018-06-28T04:52:56.454Z,71.80
2018-06-28T04:55:25.027Z,72.00
2018-06-28T04:57:53.589Z,71.70
2018-06-28T05:00:22.161Z,71.40
2018-06-28T05:02:50.728Z,71.00
2018-06-28T05:05:19.297Z,71.10
2018-06-28T05:07:47.874Z,70.70
2018-06-28T05:10:16.446Z,71.00
2018-06-28T05:12:45.008Z,71.60
2018-06-28T05:15:13.594Z,70.80
2018-06-28T05:17:42.146Z,69.30
2018-06-28T05:20:10.669Z,68.70
2018-06-28T05:22:39.286Z,68.00
2018-06-28T05:25:08.259Z,67.70
2018-06-28T05:27:36.808Z,65.80
2018-06-28T05:30:05.703Z,64.10
2018-06-28T05:32:34.271Z,62.50
2018-06-28T05:35:02.807Z,61.20
2018-06-28T05:37:31.384Z,58.30
2018-06-28T05:39:59.889Z,56.10
2018-06-28T05:44:56.662Z,51.40
2018-06-28T05:47:25.242Z,49.00
2018-06-28T05:49:54.697Z,48.00
2018-06-28T05:52:23.273Z,47.00
2018-06-28T05:54:51.838Z,46.10
2018-06-28T05:57:20.371Z,47.80
2018-06-28T05:59:48.911Z,50.20
2018-06-28T06:02:17.443Z,51.20
2018-06-28T06:04:45.969Z,50.80
2018-06-28T06:07:14.566Z,49.90
2018-06-28T06:09:43.109Z,46.60
2018-06-28T06:12:11.666Z,44.90
2018-06-28T06:14:40.218Z,45.50
2018-06-28T06:17:08.741Z,43.20
2018-06-28T06:19:37.359Z,40.40
2018-06-28T06:22:05.862Z,41.10
2018-06-28T06:24:34.434Z,39.70
2018-06-28T06:27:02.978Z,39.50
2018-06-28T06:29:31.548Z,40.00
2018-06-28T06:32:00.053Z,41.40
2018-06-28T06:34:28.556Z,40.70
2018-06-28T06:36:57.114Z,42.10
2018-06-28T06:39:25.734Z,40.70
2018-06-28T06:41:54.255Z,41.60
2018-06-28T06:44:22.825Z,41.00
2018-06-28T06:46:51.407Z,40.20
2018-06-28T06:49:20.098Z,42.10
2018-06-28T06:51:48.677Z,42.50
2018-06-28T06:54:17.237Z,42.20
2018-06-28T06:56:45.858Z,42.90
2018-06-28T06:59:14.434Z,42.40
2018-06-28T07:01:42.993Z,40.80
2018-06-28T07:04:11.570Z,40.20
2018-06-28T07:06:40.133Z,40.40
2018-06-28T07:09:10.961Z,39.70
2018-06-28T07:11:39.858Z,40.00
2018-06-28T07:14:08.471Z,39.10
2018-06-28T07:16:37.002Z,40.80
2018-06-28T07:19:05.804Z,41.20
2018-06-28T07:21:34.362Z,39.50
2018-06-28T07:24:02.895Z,41.50
2018-06-28T07:26:31.493Z,40.00
2018-06-28T07:29:00.043Z,41.70
2018-06-28T07:31:28.694Z,40.40
2018-06-28T07:33:57.367Z,41.70
2018-06-28T07:36:25.853Z,41.20
2018-06-28T07:38:54.447Z,40.90
2018-06-28T07:41:22.924Z,38.40
2018-06-28T07:43:51.507Z,38.20
2018-06-28T07:46:20.019Z,40.70
2018-06-28T07:48:49.346Z,39.70
2018-06-28T07:51:17.997Z,40.00
2018-06-28T07:53:46.563Z,39.10
2018-06-28T07:56:15.144Z,37.90
2018-06-28T07:58:43.682Z,37.80
2018-06-28T08:01:12.290Z,37.80
2018-06-28T08:03:40.842Z,39.60
2018-06-28T08:06:09.536Z,39.80
2018-06-28T08:08:39.340Z,41.30
2018-06-28T08:11:07.860Z,42.90
2018-06-28T08:13:36.423Z,43.20
2018-06-28T08:16:06.020Z,43.00
2018-06-28T08:18:34.598Z,43.70
2018-06-28T08:21:03.091Z,41.90
2018-06-28T08:23:31.662Z,41.80
2018-06-28T08:26:00.262Z,43.50
2018-06-28T08:28:28.898Z,44.00
2018-06-28T08:30:57.530Z,45.50
2018-06-28T08:33:26.080Z,46.50
2018-06-28T08:35:54.772Z,47.60
2018-06-28T08:38:23.263Z,49.10
2018-06-28T08:40:51.835Z,48.30
2018-06-28T08:43:20.378Z,49.30
2018-06-28T08:45:48.934Z,49.70
2018-06-28T08:48:17.861Z,48.20
2018-06-28T08:50:46.414Z,47.60
2018-06-28T08:53:14.942Z,47.70
2018-06-28T08:58:11.740Z,47.60
2018-06-28T09:00:40.294Z,49.60
2018-06-28T09:03:08.916Z,49.10
2018-06-28T09:05:37.508Z,48.20
2018-06-28T09:08:06.179Z,47.00
2018-06-28T09:10:34.747Z,48.40
2018-06-28T09:13:03.359Z,45.00
2018-06-28T09:15:31.932Z,44.30
2018-06-28T09:18:00.752Z,44.50
2018-06-28T09:20:29.389Z,43.30
2018-06-28T09:22:57.966Z,42.00
2018-06-28T09:25:26.508Z,40.60
2018-06-28T09:27:55.076Z,40.40
2018-06-28T09:30:23.650Z,40.80
2018-06-28T09:32:52.181Z,42.10
2018-06-28T09:35:20.746Z,41.00
2018-06-28T09:37:50.259Z,42.20
2018-06-28T09:40:18.889Z,42.30
2018-06-28T09:42:47.553Z,41.80
2018-06-28T09:45:16.148Z,41.60
2018-06-28T09:47:44.690Z,41.00
2018-06-28T09:50:13.262Z,41.00
2018-06-28T09:52:41.813Z,41.00
2018-06-28T09:55:10.388Z,41.50
2018-06-28T09:57:38.998Z,39.10
2018-06-28T10:00:08.242Z,39.00
2018-06-28T10:02:36.800Z,39.70
2018-06-28T10:05:06.234Z,41.00
2018-06-28T10:07:34.775Z,39.90
2018-06-28T10:10:03.378Z,39.60
2018-06-28T10:12:32.454Z,41.00
2018-06-28T10:15:01.085Z,43.40
2018-06-28T10:17:29.613Z,44.70
2018-06-28T10:19:58.195Z,45.60
2018-06-28T10:22:26.698Z,46.60
2018-06-28T10:24:55.269Z,48.60
2018-06-28T10:27:23.966Z,49.30
2018-06-28T10:29:52.620Z,51.40
2018-06-28T10:32:21.134Z,55.20
2018-06-28T10:34:49.638Z,55.80
2018-06-28T10:37:18.224Z,57.00
2018-06-28T10:39:47.418Z,59.10
2018-06-28T10:42:15.956Z,59.10
2018-06-28T10:44:44.479Z,60.10
2018-06-28T10:47:13.119Z,60.50
2018-06-28T10:49:41.808Z,60.90
2018-06-28T10:52:10.301Z,62.90
2018-06-28T10:54:38.920Z,63.30
2018-06-28T10:57:08.061Z,69.30
2018-06-28T10:59:52.964Z,67.00
2018-06-28T11:02:21.803Z,67.60
2018-06-28T11:04:50.384Z,70.40
2018-06-28T11:07:18.905Z,72.80
2018-06-28T11:09:47.448Z,70.70
2018-06-28T11:12:16.051Z,74.60
2018-06-28T11:14:45.317Z,76.30
2018-06-28T11:17:13.847Z,74.00
2018-06-28T11:19:42.410Z,70.70
2018-06-28T11:22:10.914Z,69.50
2018-06-28T11:24:39.931Z,69.30
2018-06-28T11:27:08.510Z,71.20
2018-06-28T11:29:37.082Z,71.80
2018-06-28T11:32:05.702Z,70.80
2018-06-28T11:34:34.272Z,70.30
2018-06-28T11:37:02.859Z,70.80
2018-06-28T11:39:31.409Z,72.00
2018-06-28T11:42:00.020Z,71.90
2018-06-28T11:44:28.641Z,72.50
2018-06-28T11:46:57.303Z,71.70
2018-06-28T11:49:26.043Z,71.10
2018-06-28T11:51:54.557Z,71.90
2018-06-28T11:54:23.123Z,71.00
2018-06-28T11:56:51.743Z,66.60
2018-06-28T11:59:20.329Z,67.40
2018-06-28T12:01:48.881Z,68.80
2018-06-28T12:04:17.420Z,66.90
2018-06-28T12:06:45.977Z,66.10
2018-06-28T12:09:14.566Z,67.00
2018-06-28T12:11:43.112Z,68.70
2018-06-28T12:14:12.368Z,68.30
2018-06-28T12:16:40.979Z,70.70
2018-06-28T12:19:09.546Z,72.40
2018-06-28T12:21:38.104Z,70.60
2018-06-28T12:24:06.861Z,73.20
2018-06-28T12:26:35.454Z,71.90
2018-06-28T12:29:03.997Z,73.30
2018-06-28T12:31:32.610Z,73.50
2018-06-28T12:34:01.203Z,71.00
2018-06-28T12:36:29.796Z,69.40
2018-06-28T12:39:05.107Z,70.10
2018-06-28T12:41:33.666Z,72.20
2018-06-28T12:44:03.043Z,73.30
2018-06-28T12:46:42.638Z,73.20
2018-06-28T12:49:11.236Z,73.40
2018-06-28T12:51:50.785Z,73.40
2018-06-28T12:54:20.002Z,72.50
2018-06-28T12:56:51.046Z,72.70
2018-06-28T12:59:22.555Z,71.80
2018-06-28T13:01:51.718Z,71.50
2018-06-28T13:04:20.312Z,75.00
2018-06-28T13:06:48.876Z,75.30
2018-06-28T13:09:18.474Z,75.60
2018-06-28T13:11:47.138Z,74.90
2018-06-28T13:14:16.665Z,74.70
2018-06-28T13:16:45.295Z,74.60
2018-06-28T13:19:14.505Z,73.70
2018-06-28T13:21:43.022Z,74.20
2018-06-28T13:24:11.624Z,73.80
2018-06-28T13:26:40.242Z,75.50
2018-06-28T13:29:08.884Z,73.70
2018-06-28T13:31:37.443Z,73.80
2018-06-28T13:36:37.898Z,72.70
2018-06-28T13:39:07.274Z,68.70
2018-06-28T13:41:36.365Z,64.40
2018-06-28T13:44:04.526Z,64.10
2018-06-28T13:46:33.132Z,63.00
2018-06-28T13:49:01.720Z,64.60
2018-06-28T13:51:30.241Z,65.70
2018-06-28T13:53:58.798Z,67.80
2018-06-28T13:56:27.387Z,68.40
2018-06-28T13:58:55.959Z,65.30
2018-06-28T14:01:24.495Z,67.50
2018-06-28T14:03:53.074Z,64.90
2018-06-28T14:06:21.655Z,67.30
2018-06-28T14:08:50.241Z,69.40
2018-06-28T14:11:18.833Z,68.40
2018-06-28T14:13:47.399Z,69.10
2018-06-28T14:16:16.550Z,71.30
2018-06-28T14:18:45.155Z,69.60
2018-06-28T14:21:13.706Z,70.30
2018-06-28T14:23:42.217Z,71.90
2018-06-28T14:26:10.730Z,71.30
2018-06-28T14:28:39.274Z,74.90
2018-06-28T14:31:08.745Z,75.90
2018-06-28T14:33:37.325Z,74.80
2018-06-28T14:36:06.008Z,76.80
2018-06-28T14:38:34.591Z,78.80
2018-06-28T14:41:03.147Z,76.90
2018-06-28T14:43:31.714Z,77.90
2018-06-28T14:46:00.222Z,75.40
2018-06-28T14:48:36.198Z,76.70
2018-06-28T14:51:04.783Z,78.50
2018-06-28T14:53:33.974Z,77.50
2018-06-28T14:56:03.144Z,76.90
2018-06-28T14:58:32.869Z,79.10
2018-06-28T15:01:01.428Z,78.80
2018-06-28T15:03:29.971Z,78.40
2018-06-28T15:05:58.529Z,77.90
2018-06-28T15:08:27.775Z,78.40
2018-06-28T15:10:56.356Z,80.40
2018-06-28T15:13:25.046Z,81.40
2018-06-28T15:15:54.124Z,82.50
2018-06-28T15:18:22.707Z,82.90
2018-06-28T15:20:51.240Z,82.10
2018-06-28T15:23:19.766Z,81.20
2018-06-28T15:25:48.799Z,79.40
2018-06-28T15:28:17.331Z,77.90
2018-06-28T15:30:45.921Z,78.80
2018-06-28T15:33:15.202Z,81.30
2018-06-28T15:35:43.679Z,80.70
2018-06-28T15:38:12.602Z,80.30
2018-06-28T15:40:41.187Z,77.70
2018-06-28T15:43:09.759Z,79.60
2018-06-28T15:45:38.316Z,77.40
2018-06-28T15:48:07.078Z,77.90
2018-06-28T15:50:35.811Z,76.60
2018-06-28T15:53:05.080Z,78.10
2018-06-28T15:55:33.679Z,77.60
2018-06-28T15:58:02.243Z,79.20
2018-06-28T16:00:30.831Z,80.00
2018-06-28T16:02:59.469Z,80.70
2018-06-28T16:05:28.014Z,80.00
2018-06-28T16:07:56.607Z,80.00
2018-06-28T16:10:25.192Z,79.20
2018-06-28T16:12:53.744Z,80.10
2018-06-28T16:15:22.998Z,78.00
2018-06-28T16:17:51.542Z,77.40
2018-06-28T16:20:20.120Z,76.70
2018-06-28T16:22:48.705Z,75.60
2018-06-28T16:25:17.254Z,77.00
2018-06-28T16:27:45.851Z,76.20
2018-06-28T16:30:14.462Z,77.50
2018-06-28T16:32:43.065Z,76.70
2018-06-28T16:35:11.698Z,77.00
2018-06-28T16:37:40.747Z,76.60
2018-06-28T16:40:09.486Z,77.10
2018-06-28T16:42:38.910Z,76.70
2018-06-28T16:45:07.526Z,78.20
2018-06-28T16:47:36.140Z,78.00
2018-06-28T16:50:04.930Z,78.50
2018-06-28T16:55:01.785Z,78.80
2018-06-28T16:57:30.341Z,77.00
2018-06-28T16:59:58.977Z,77.60
2018-06-28T17:02:27.639Z,77.90
2018-06-28T17:04:56.204Z,79.20
2018-06-28T17:07:24.744Z,81.10
2018-06-28T17:09:53.342Z,82.20
2018-06-28T17:12:22.847Z,81.60
2018-06-28T17:14:51.415Z,81.40
2018-06-28T17:17:20.090Z,82.60
2018-06-28T17:19:48.663Z,83.20
2018-06-28T17:22:17.245Z,83.10
2018-06-28T17:24:45.822Z,84.60
2018-06-28T17:27:15.163Z,84.40
2018-06-28T17:29:43.790Z,84.80
2018-06-28T17:32:12.362Z,82.60
2018-06-28T17:34:40.999Z,82.00
2018-06-28T17:37:09.591Z,83.30
2018-06-28T17:39:38.136Z,83.40
2018-06-28T17:42:07.433Z,83.20
2018-06-28T17:44:35.963Z,83.10
2018-06-28T17:47:05.487Z,82.60
2018-06-28T17:49:34.085Z,83.50
2018-06-28T17:52:02.739Z,81.90
2018-06-28T17:54:31.397Z,80.20
2018-06-28T17:57:00.924Z,82.30
2018-06-28T17:59:30.362Z,83.00
2018-06-28T18:01:58.925Z,82.90
2018-06-28T18:04:28.528Z,85.30
2018-06-28T18:06:57.045Z,83.30
2018-06-28T18:09:25.639Z,84.40
2018-06-28T18:11:54.198Z,86.10
2018-06-28T18:16:51.907Z,84.10
2018-06-28T18:19:20.889Z,84.00
2018-06-28T18:21:49.498Z,82.80
2018-06-28T18:24:18.222Z,84.20
2018-06-28T18:26:47.101Z,84.30
2018-06-28T18:29:15.695Z,83.80
2018-06-28T18:31:44.216Z,86.20
2018-06-28T18:34:12.808Z,86.60
2018-06-28T18:36:41.839Z,86.80
2018-06-28T18:39:10.872Z,87.50
2018-06-28T18:41:40.010Z,86.00
2018-06-28T18:44:09.260Z,86.50
2018-06-28T18:46:40.435Z,87.30
2018-06-28T18:49:09.065Z,88.30
2018-06-28T18:51:37.879Z,89.50
2018-06-28T18:54:06.535Z,89.10
2018-06-28T18:56:35.384Z,88.50
2018-06-28T18:59:03.966Z,89.60
2018-06-28T19:01:34.135Z,90.40
2018-06-28T19:04:02.750Z,90.50
2018-06-28T19:06:32.569Z,90.70
2018-06-28T19:09:01.117Z,90.30
2018-06-28T19:11:29.707Z,90.10
2018-06-28T19:14:03.630Z,90.20
2018-06-28T19:16:37.410Z,90.40
2018-06-28T19:19:06.615Z,90.70
2018-06-28T19:21:40.679Z,90.80
2018-06-28T19:24:09.355Z,90.90
2018-06-28T19:26:39.094Z,90.70
2018-06-28T19:29:13.217Z,90.70
2018-06-28T19:31:47.339Z,90.30
2018-06-28T19:34:15.859Z,90.90
2018-06-28T19:36:44.710Z,91.00
2018-06-28T19:39:18.983Z,91.00
2018-06-28T19:41:53.707Z,91.30
2018-06-28T19:44:22.825Z,91.40
2018-06-28T19:46:52.259Z,91.30
2018-06-28T19:49:26.483Z,91.10
2018-06-28T19:52:00.299Z,91.30
2018-06-28T19:54:30.671Z,91.10
2018-06-28T19:57:01.129Z,91.50
2018-06-28T19:59:29.809Z,91.70
2018-06-28T20:02:04.411Z,91.70
2018-06-28T20:04:38.671Z,91.90
2018-06-28T20:07:07.801Z,92.00
2018-06-28T20:09:37.022Z,91.70
2018-06-28T20:12:11.090Z,91.80
2018-06-28T20:14:44.872Z,91.70
2018-06-28T20:17:18.621Z,91.80
2018-06-28T20:19:53.427Z,91.90
2018-06-28T20:22:22.425Z,91.50
2018-06-28T20:24:51.696Z,91.00
2018-06-28T20:27:26.620Z,91.10
2018-06-28T20:30:00.559Z,91.20
2018-06-28T20:32:34.314Z,91.90
2018-06-28T20:35:04.166Z,92.00
2018-06-28T20:37:33.188Z,92.00
2018-06-28T20:40:01.933Z,92.10
2018-06-28T20:42:30.497Z,91.80
2018-06-28T20:47:27.956Z,91.70
2018-06-28T20:49:57.660Z,91.50
2018-06-28T20:52:27.105Z,91.50
2018-06-28T20:54:55.709Z,91.60
2018-06-28T20:57:24.868Z,90.10
2018-06-28T20:59:54.524Z,91.00
2018-06-28T21:02:23.191Z,91.10
2018-06-28T21:04:53.219Z,91.40
2018-06-28T21:07:23.477Z,91.50
2018-06-28T21:09:53.468Z,91.10
2018-06-28T21:12:22.236Z,90.70
2018-06-28T21:14:50.777Z,90.50
2018-06-28T21:17:19.340Z,90.70
2018-06-28T21:19:47.897Z,91.00
2018-06-28T21:22:16.562Z,91.30
2018-06-28T21:24:46.413Z,91.70
2018-06-28T21:27:15.621Z,91.70
2018-06-28T21:29:45.127Z,91.50
2018-06-28T21:32:14.633Z,91.80
2018-06-28T21:34:44.529Z,91.80
2018-06-28T21:37:13.847Z,91.80
2018-06-28T21:39:43.820Z,91.90
2018-06-28T21:42:13.239Z,92.40
2018-06-28T21:44:42.059Z,92.30
2018-06-28T21:47:10.645Z,92.20
2018-06-28T21:49:39.928Z,91.90
2018-06-28T21:52:11.691Z,92.40
2018-06-28T21:54:40.254Z,92.50
2018-06-28T21:57:09.074Z,92.30
2018-06-28T21:59:37.608Z,92.50
2018-06-28T22:02:06.266Z,92.40
2018-06-28T22:04:35.099Z,92.50
2018-06-28T22:07:03.687Z,92.30
2018-06-28T22:09:32.498Z,92.60
2018-06-28T22:12:01.056Z,92.70
2018-06-28T22:14:30.115Z,92.40
2018-06-28T22:17:00.338Z,92.80
2018-06-28T22:19:29.716Z,92.90
2018-06-28T22:21:58.249Z,92.70
2018-06-28T22:24:26.807Z,92.40
2018-06-28T22:26:55.369Z,92.30
2018-06-28T22:29:24.592Z,92.40
2018-06-28T22:31:53.150Z,92.70
2018-06-28T22:34:21.675Z,92.60
2018-06-28T22:36:51.733Z,92.50
2018-06-28T22:39:20.450Z,92.70
2018-06-28T22:41:48.978Z,92.50
2018-06-28T22:44:17.847Z,92.40
2018-06-28T22:46:46.686Z,92.00
2018-06-28T22:49:16.234Z,92.00
2018-06-28T22:51:44.771Z,92.10
2018-06-28T22:54:13.329Z,91.70
2018-06-28T22:56:42.635Z,91.70
2018-06-28T22:59:12.434Z,91.70
2018-06-28T23:01:41.098Z,90.20
2018-06-28T23:04:10.265Z,90.70
2018-06-28T23:06:38.853Z,91.00
2018-06-28T23:09:09.818Z,91.10
2018-06-28T23:11:38.380Z,90.70
2018-06-28T23:14:07.048Z,90.90
2018-06-28T23:16:35.467Z,91.50
2018-06-28T23:19:04.093Z,91.70
2018-06-28T23:21:32.584Z,91.80
2018-06-28T23:24:01.114Z,92.20
2018-06-28T23:26:30.159Z,92.30
2018-06-28T23:28:58.687Z,92.40
2018-06-28T23:31:27.178Z,92.20
2018-06-28T23:33:56.918Z,92.20
2018-06-28T23:36:28.396Z,92.10
2018-06-28T23:38:57.905Z,92.20
2018-06-28T23:41:27.066Z,92.20
2018-06-28T23:43:55.574Z,92.30
2018-06-28T23:46:24.131Z,92.40
2018-06-28T23:48:52.806Z,92.50
2018-06-28T23:51:22.028Z,92.40
2018-06-28T23:53:50.583Z,92.50
2018-06-28T23:56:19.924Z,92.20
2018-06-28T23:58:48.437Z,92.20
